Time;durP1;ratioP1;P1;durP2;ratioP2;P2;SDS_P1;SDS_P2;PMS_P1;PMS_P2;Temp;Humidity;BMP_temperature;BMP_pressure;BME280_temperature;BME280_humidity;BME280_pressure;Samples;Min_cycle;Max_cycle;Signal;HPM_P1;HPM_P2
2022/09/01 00:02:29;;;;;;;0.00;0.00;;;14.50;99.90;;;;;;5039564;28;20452;-76
2022/09/01 00:04:59;;;;;;;0.00;0.00;;;14.50;99.90;;;;;;5039691;28;21151;-78
2022/09/01 00:07:29;;;;;;;0.00;0.00;;;14.50;99.90;;;;;;5039861;28;20444;-76
2022/09/01 00:09:57;;;;;;;0.00;0.00;;;14.50;99.90;;;;;;5039349;28;20464;-77
2022/09/01 00:12:26;;;;;;;0.00;0.00;;;14.40;99.90;;;;;;5039219;28;20512;-77
2022/09/01 00:14:54;;;;;;;0.00;0.00;;;14.40;99.90;;;;;;5039431;28;20436;-76
2022/09/01 00:17:22;;;;;;;0.00;0.00;;;14.40;99.90;;;;;;5039633;28;20448;-76
2022/09/01 00:19:50;;;;;;;0.00;0.00;;;14.40;99.90;;;;;;5039642;28;20490;-76
2022/09/01 00:22:19;;;;;;;0.00;0.00;;;14.40;99.90;;;;;;5044121;28;20445;-76
2022/09/01 00:24:47;;;;;;;0.00;0.00;;;14.40;99.90;;;;;;5045681;28;20456;-76
2022/09/01 00:27:15;;;;;;;0.00;0.00;;;14.40;99.90;;;;;;5039114;28;20454;-77
2022/09/01 00:29:43;;;;;;;0.00;0.00;;;14.30;99.90;;;;;;5038870;28;20472;-74
2022/09/01 00:32:11;;;;;;;0.00;0.00;;;14.30;99.90;;;;;;5039170;28;20476;-77
2022/09/01 00:34:39;;;;;;;0.00;0.00;;;14.30;99.90;;;;;;5038762;28;20983;-76
2022/09/01 00:37:07;;;;;;;0.00;0.00;;;14.30;99.90;;;;;;5039318;28;20444;-74
2022/09/01 00:39:37;;;;;;;0.00;0.00;;;14.30;99.90;;;;;;5038174;28;20621;-74
2022/09/01 00:42:05;;;;;;;0.00;0.00;;;14.30;99.90;;;;;;5039450;28;20435;-75
2022/09/01 00:44:35;;;;;;;0.00;0.00;;;14.30;99.90;;;;;;5038705;28;20535;-73
2022/09/01 00:47:06;;;;;;;0.00;0.00;;;14.30;99.90;;;;;;5038314;28;21180;-74
2022/09/01 00:49:38;;;;;;;0.00;0.00;;;14.20;99.90;;;;;;5041695;28;20985;-78
2022/09/01 00:52:09;;;;;;;0.00;0.00;;;14.20;99.90;;;;;;5042895;28;21166;-75
2022/09/01 00:54:42;;;;;;;0.00;0.00;;;14.20;99.90;;;;;;5042974;28;20630;-76
2022/09/01 00:57:11;;;;;;;0.00;0.00;;;14.20;99.90;;;;;;5042706;28;20447;-77
2022/09/01 00:59:43;;;;;;;0.00;0.00;;;14.10;99.90;;;;;;5042664;28;20451;-74
2022/09/01 01:02:11;;;;;;;0.00;0.00;;;14.10;99.90;;;;;;5042581;28;20432;-76
2022/09/01 01:04:39;;;;;;;0.00;0.00;;;14.10;99.90;;;;;;5042416;28;20535;-75
2022/09/01 01:07:07;;;;;;;0.00;0.00;;;14.10;99.90;;;;;;5042757;28;21126;-75
2022/09/01 01:09:40;;;;;;;0.00;0.00;;;14.10;99.90;;;;;;5041655;28;20468;-74
2022/09/01 01:12:10;;;;;;;0.00;0.00;;;14.00;99.90;;;;;;5045162;28;20467;-74
2022/09/01 01:14:38;;;;;;;0.00;0.00;;;14.10;99.90;;;;;;5061568;28;20431;-73
2022/09/01 01:17:06;;;;;;;0.00;0.00;;;14.10;99.90;;;;;;5060838;28;20447;-73
2022/09/01 01:25:24;;;;;;;0.00;0.00;;;14.00;99.90;;;;;;5060647;28;20451;-74
2022/09/01 01:27:53;;;;;;;0.00;0.00;;;14.00;99.90;;;;;;5061521;28;20449;-75
2022/09/01 01:30:22;;;;;;;0.00;0.00;;;14.00;99.90;;;;;;5060875;28;20498;-75
2022/09/01 01:32:51;;;;;;;0.00;0.00;;;14.00;99.90;;;;;;5061204;28;20470;-75
2022/09/01 01:35:20;;;;;;;0.00;0.00;;;14.00;99.90;;;;;;5061723;28;20530;-74
2022/09/01 01:37:49;;;;;;;0.00;0.00;;;14.00;99.90;;;;;;5061458;28;20440;-74
2022/09/01 01:40:20;;;;;;;0.00;0.00;;;13.90;99.90;;;;;;5061532;28;20455;-74
2022/09/01 01:42:52;;;;;;;0.00;0.00;;;13.90;99.90;;;;;;5061582;28;20463;-73
2022/09/01 01:45:22;;;;;;;0.00;0.00;;;13.90;99.90;;;;;;5061715;28;20532;-75
2022/09/01 01:47:52;;;;;;;0.00;0.00;;;13.90;99.90;;;;;;5061531;28;20435;-74
2022/09/01 01:50:21;;;;;;;0.00;0.00;;;13.90;99.90;;;;;;5061360;28;20463;-75
2022/09/01 01:52:49;;;;;;;0.00;0.00;;;13.90;99.90;;;;;;5060971;28;21133;-75
2022/09/01 01:55:27;;;;;;;0.00;0.00;;;13.90;99.90;;;;;;5061459;28;20444;-73
2022/09/01 01:57:57;;;;;;;0.00;0.00;;;13.90;99.90;;;;;;5061374;28;20443;-74
2022/09/01 02:00:27;;;;;;;0.00;0.00;;;13.90;99.90;;;;;;5060408;28;20459;-74
2022/09/01 02:02:58;;;;;;;0.00;0.00;;;13.90;99.90;;;;;;5060814;28;20489;-75
2022/09/01 02:05:29;;;;;;;0.00;0.00;;;13.90;99.90;;;;;;5061045;28;20447;-75
2022/09/01 02:08:00;;;;;;;0.00;0.00;;;14.00;99.90;;;;;;5061022;28;21112;-74
2022/09/01 02:10:31;;;;;;;0.00;0.00;;;13.90;99.90;;;;;;5060754;28;20503;-74
2022/09/01 02:13:04;;;;;;;0.00;0.00;;;13.90;99.90;;;;;;5061252;28;20475;-75
2022/09/01 02:23:31;;;;;;;0.00;0.00;;;13.90;99.90;;;;;;4957821;28;20536;-74
2022/09/01 02:26:01;;;;;;;0.00;0.00;;;13.90;99.90;;;;;;4959339;28;20466;-74
2022/09/01 02:28:48;;;;;;;0.00;0.00;;;13.90;99.90;;;;;;4986655;28;20459;-74
2022/09/01 02:31:23;;;;;;;0.00;0.00;;;13.80;99.90;;;;;;5063598;28;20458;-74
2022/09/01 02:33:53;;;;;;;0.00;0.00;;;13.80;99.90;;;;;;5063588;28;20479;-74
2022/09/01 02:36:21;;;;;;;0.00;0.00;;;13.80;99.90;;;;;;5060899;28;20436;-75
2022/09/01 02:38:49;;;;;;;0.00;0.00;;;13.80;99.90;;;;;;5060200;28;20561;-75
2022/09/01 02:41:23;;;;;;;0.00;0.00;;;13.80;99.90;;;;;;5061131;28;20442;-73
2022/09/01 02:43:53;;;;;;;0.00;0.00;;;13.80;99.90;;;;;;5061086;28;20435;-75
2022/09/01 02:46:22;;;;;;;0.00;0.00;;;13.80;99.90;;;;;;5060539;28;20439;-75
2022/09/01 02:48:51;;;;;;;0.00;0.00;;;13.70;99.90;;;;;;5060223;28;20487;-75
2022/09/01 02:51:22;;;;;;;0.00;0.00;;;13.70;99.90;;;;;;5060364;28;21124;-75
2022/09/01 02:53:51;;;;;;;0.00;0.00;;;13.70;99.90;;;;;;5060476;28;20844;-76
2022/09/01 02:56:21;;;;;;;0.00;0.00;;;13.70;99.90;;;;;;5060245;28;21063;-75
2022/09/01 02:58:54;;;;;;;0.00;0.00;;;13.60;99.90;;;;;;5060279;28;20460;-75
2022/09/01 03:01:24;;;;;;;0.00;0.00;;;13.60;99.90;;;;;;5060225;28;20467;-73
2022/09/01 03:03:55;;;;;;;0.00;0.00;;;13.60;99.90;;;;;;5060186;28;21096;-74
2022/09/01 03:06:23;;;;;;;0.00;0.00;;;13.60;99.90;;;;;;5059890;28;20946;-74
2022/09/01 03:08:53;;;;;;;0.00;0.00;;;13.60;99.90;;;;;;5060556;28;20451;-73
2022/09/01 03:11:23;;;;;;;0.00;0.00;;;13.60;99.90;;;;;;5059918;28;20538;-73
2022/09/01 03:13:53;;;;;;;0.00;0.00;;;13.60;99.90;;;;;;5061742;28;20468;-73
2022/09/01 03:16:22;;;;;;;0.00;0.00;;;13.50;99.90;;;;;;5061189;28;20521;-73
2022/09/01 03:18:50;;;;;;;0.00;0.00;;;13.50;99.90;;;;;;5061045;28;20558;-74
2022/09/01 03:21:18;;;;;;;0.00;0.00;;;13.40;99.90;;;;;;5060688;28;20471;-75
2022/09/01 03:23:50;;;;;;;0.00;0.00;;;13.40;99.90;;;;;;5060925;28;20454;-74
2022/09/01 03:26:20;;;;;;;0.00;0.00;;;13.40;99.90;;;;;;5060475;28;20435;-75
2022/09/01 03:28:49;;;;;;;0.00;0.00;;;13.40;99.90;;;;;;5059826;28;20949;-75
2022/09/01 03:31:19;;;;;;;0.00;0.00;;;13.40;99.90;;;;;;5059630;28;20547;-75
2022/09/01 03:33:48;;;;;;;0.00;0.00;;;13.50;99.90;;;;;;5060090;28;21143;-74
2022/09/01 03:36:18;;;;;;;0.00;0.00;;;13.50;99.90;;;;;;5060108;28;21190;-75
2022/09/01 03:38:48;;;;;;;0.00;0.00;;;13.50;99.90;;;;;;5059342;28;20495;-75
2022/09/01 03:41:18;;;;;;;0.00;0.00;;;13.60;99.90;;;;;;5059768;28;21128;-75
2022/09/01 03:43:46;;;;;;;0.00;0.00;;;13.50;99.90;;;;;;5059418;28;20435;-74
2022/09/01 03:46:18;;;;;;;0.00;0.00;;;13.50;99.90;;;;;;5059436;28;21070;-74
2022/09/01 03:48:50;;;;;;;0.00;0.00;;;13.50;99.90;;;;;;5058986;28;21008;-74
2022/09/01 03:51:21;;;;;;;0.00;0.00;;;13.50;99.90;;;;;;5059424;28;20441;-74
2022/09/01 03:53:53;;;;;;;0.00;0.00;;;13.50;99.90;;;;;;5059271;28;20545;-73
2022/09/01 03:56:23;;;;;;;0.00;0.00;;;13.50;99.90;;;;;;5059800;28;20546;-74
2022/09/01 03:58:51;;;;;;;0.00;0.00;;;13.40;99.90;;;;;;5059141;28;20542;-73
2022/09/01 04:01:20;;;;;;;0.00;0.00;;;13.40;99.90;;;;;;5059182;28;20472;-74
2022/09/01 04:03:51;;;;;;;0.00;0.00;;;13.30;99.90;;;;;;5059413;28;20435;-74
2022/09/01 04:06:22;;;;;;;0.00;0.00;;;13.30;99.90;;;;;;5059597;28;20435;-73
2022/09/01 04:08:55;;;;;;;0.00;0.00;;;13.20;99.90;;;;;;5058620;28;20573;-75
2022/09/01 04:11:24;;;;;;;0.00;0.00;;;13.20;99.90;;;;;;5059166;28;20497;-74
2022/09/01 04:13:52;;;;;;;0.00;0.00;;;13.20;99.90;;;;;;5059346;28;20482;-74
2022/09/01 04:19:26;;;;;;;0.00;0.00;;;13.10;99.90;;;;;;4995919;28;21192;-74
2022/09/01 04:21:55;;;;;;;0.00;0.00;;;13.10;99.90;;;;;;4996538;28;21014;-72
2022/09/01 04:24:26;;;;;;;0.00;0.00;;;13.10;99.90;;;;;;5026256;28;20435;-74
2022/09/01 04:26:57;;;;;;;0.00;0.00;;;13.00;99.90;;;;;;5059451;28;20986;-73
2022/09/01 04:29:27;;;;;;;0.00;0.00;;;13.00;99.90;;;;;;5058498;28;20455;-74
2022/09/01 04:32:00;;;;;;;0.00;0.00;;;13.00;99.90;;;;;;5058966;28;20439;-74
2022/09/01 04:34:35;;;;;;;0.00;0.00;;;13.00;99.90;;;;;;5058870;28;21148;-75
2022/09/01 04:37:08;;;;;;;0.00;0.00;;;13.00;99.90;;;;;;5058447;28;20434;-74
2022/09/01 04:39:37;;;;;;;0.00;0.00;;;13.00;99.90;;;;;;5059041;28;20550;-75
2022/09/01 04:42:08;;;;;;;0.00;0.00;;;12.90;99.90;;;;;;5061812;28;20443;-76
2022/09/01 04:44:36;;;;;;;0.00;0.00;;;12.90;99.90;;;;;;5060479;28;20703;-74
2022/09/01 04:47:09;;;;;;;0.00;0.00;;;12.90;99.90;;;;;;5058329;28;20444;-73
2022/09/01 04:49:38;;;;;;;0.00;0.00;;;12.90;99.90;;;;;;5058812;28;20461;-73
2022/09/01 04:52:06;;;;;;;0.00;0.00;;;12.90;99.90;;;;;;5059361;28;20539;-74
2022/09/01 04:54:35;;;;;;;0.00;0.00;;;12.90;99.90;;;;;;5059075;28;20963;-73
2022/09/01 04:57:04;;;;;;;0.00;0.00;;;12.90;99.90;;;;;;5058522;28;20999;-73
2022/09/01 04:59:33;;;;;;;0.00;0.00;;;12.90;99.90;;;;;;5058838;28;20456;-73
2022/09/01 05:02:00;;;;;;;0.00;0.00;;;12.90;99.90;;;;;;5059058;28;20518;-73
2022/09/01 05:04:32;;;;;;;0.00;0.00;;;13.00;99.90;;;;;;5059087;28;20470;-73
2022/09/01 05:07:04;;;;;;;0.00;0.00;;;13.00;99.90;;;;;;5058378;28;20482;-72
2022/09/01 05:09:36;;;;;;;0.00;0.00;;;13.10;99.90;;;;;;5059624;28;20471;-74
2022/09/01 05:12:10;;;;;;;0.00;0.00;;;13.20;99.90;;;;;;5058827;28;20435;-74
2022/09/01 05:14:45;;;;;;;0.00;0.00;;;13.20;99.90;;;;;;5058468;28;20527;-73
2022/09/01 05:17:16;;;;;;;0.00;0.00;;;13.20;99.90;;;;;;5058313;28;20593;-72
2022/09/01 05:19:46;;;;;;;0.00;0.00;;;13.20;99.90;;;;;;5057846;28;20473;-72
2022/09/01 05:22:20;;;;;;;0.00;0.00;;;13.20;99.90;;;;;;5058197;28;20455;-72
2022/09/01 05:24:50;;;;;;;0.00;0.00;;;13.30;99.90;;;;;;5058567;28;20496;-72
2022/09/01 05:27:22;;;;;;;0.00;0.00;;;13.30;99.90;;;;;;5058928;28;20451;-73
2022/09/01 05:29:50;;;;;;;0.00;0.00;;;13.40;99.90;;;;;;5057777;28;20459;-73
2022/09/01 05:32:18;;;;;;;0.00;0.00;;;13.40;99.90;;;;;;5057792;28;20475;-72
2022/09/01 05:34:47;;;;;;;0.00;0.00;;;13.50;99.90;;;;;;5058797;28;20504;-72
2022/09/01 05:37:16;;;;;;;0.00;0.00;;;13.50;99.90;;;;;;5052439;28;20461;-72
2022/09/01 05:39:44;;;;;;;0.00;0.00;;;13.60;99.90;;;;;;5047743;28;20464;-73
2022/09/01 05:42:12;;;;;;;0.00;0.00;;;13.60;99.90;;;;;;5055568;28;20471;-73
2022/09/01 05:44:42;;;;;;;0.00;0.00;;;13.60;99.90;;;;;;5053427;28;20502;-72
2022/09/01 05:47:12;;;;;;;0.00;0.00;;;13.60;99.90;;;;;;5044068;28;21141;-72
2022/09/01 05:49:48;;;;;;;0.00;0.00;;;13.70;99.90;;;;;;5061481;28;20466;-73
2022/09/01 05:52:24;;;;;;;0.00;0.00;;;13.70;99.90;;;;;;5053959;28;21101;-73
2022/09/01 05:54:54;;;;;;;0.00;0.00;;;13.80;99.90;;;;;;5058002;28;20552;-73
2022/09/01 05:57:22;;;;;;;0.00;0.00;;;13.80;99.90;;;;;;5062066;28;20427;-73
2022/09/01 06:00:09;;;;;;;0.00;0.00;;;13.80;99.90;;;;;;5043765;28;21135;-73
2022/09/01 06:02:38;;;;;;;0.00;0.00;;;13.80;99.90;;;;;;5041148;28;21119;-73
2022/09/01 06:05:08;;;;;;;0.00;0.00;;;13.90;99.90;;;;;;5050664;28;20478;-72
2022/09/01 06:07:41;;;;;;;0.00;0.00;;;14.00;99.90;;;;;;5041780;28;20443;-73
2022/09/01 06:10:09;;;;;;;0.00;0.00;;;14.00;99.90;;;;;;5041204;28;20483;-72
2022/09/01 06:12:38;;;;;;;0.00;0.00;;;14.10;99.90;;;;;;5041604;28;20440;-72
2022/09/01 06:15:14;;;;;;;0.00;0.00;;;14.20;99.90;;;;;;5043495;28;20483;-74
2022/09/01 06:17:43;;;;;;;0.00;0.00;;;14.30;99.90;;;;;;5052195;28;20451;-73
2022/09/01 06:20:11;;;;;;;0.00;0.00;;;14.30;99.90;;;;;;5044640;28;20467;-72
2022/09/01 06:22:40;;;;;;;0.00;0.00;;;14.40;99.90;;;;;;5061822;28;20478;-73
2022/09/01 06:25:09;;;;;;;0.00;0.00;;;14.50;99.90;;;;;;5061270;28;20955;-73
2022/09/01 06:27:43;;;;;;;0.00;0.00;;;14.60;99.90;;;;;;5059237;28;20538;-71
2022/09/01 06:30:16;;;;;;;0.00;0.00;;;14.70;99.90;;;;;;5053411;28;20578;-73
2022/09/01 06:32:50;;;;;;;0.00;0.00;;;14.80;99.90;;;;;;5048956;28;20526;-72
2022/09/01 06:35:18;;;;;;;0.00;0.00;;;14.90;99.90;;;;;;5047221;28;20571;-70
2022/09/01 06:37:48;;;;;;;0.00;0.00;;;15.00;99.90;;;;;;5049897;28;20444;-71
2022/09/01 06:40:16;;;;;;;0.00;0.00;;;15.10;99.90;;;;;;5041201;28;20468;-73
2022/09/01 06:42:46;;;;;;;0.00;0.00;;;15.20;99.90;;;;;;5043335;28;20500;-70
2022/09/01 06:45:15;;;;;;;0.00;0.00;;;15.30;99.90;;;;;;5049929;28;20445;-71
2022/09/01 06:47:46;;;;;;;0.00;0.00;;;15.40;99.90;;;;;;5046480;28;20476;-72
2022/09/01 06:50:15;;;;;;;0.00;0.00;;;15.50;99.90;;;;;;5044805;28;21014;-71
2022/09/01 06:53:09;;;;;;;0.00;0.00;;;15.60;99.90;;;;;;5041339;28;20432;-70
2022/09/01 06:55:57;;;;;;;0.00;0.00;;;15.70;99.90;;;;;;5040572;28;20583;-72
2022/09/01 06:58:25;;;;;;;0.00;0.00;;;15.80;99.90;;;;;;5057770;28;20494;-72
2022/09/01 07:00:53;;;;;;;0.00;0.00;;;15.90;99.90;;;;;;5060478;28;20446;-72
2022/09/01 07:03:23;;;;;;;0.00;0.00;;;16.00;99.90;;;;;;5043023;28;20466;-70
2022/09/01 07:05:51;;;;;;;0.00;0.00;;;16.10;99.90;;;;;;5041649;28;20539;-72
2022/09/01 07:08:39;;;;;;;0.00;0.00;;;16.30;99.90;;;;;;5042008;28;20978;-71
2022/09/01 07:11:30;;;;;;;0.00;0.00;;;16.40;99.90;;;;;;5041688;28;20440;-71
2022/09/01 07:14:19;;;;;;;0.00;0.00;;;16.40;99.90;;;;;;5047264;28;20459;-73
2022/09/01 07:16:49;;;;;;;0.00;0.00;;;16.50;99.90;;;;;;5061249;28;20618;-73
2022/09/01 07:19:38;;;;;;;0.00;0.00;;;16.60;99.90;;;;;;5041287;28;20681;-72
2022/09/01 07:22:22;;;;;;;0.00;0.00;;;16.70;99.90;;;;;;5043657;28;20748;-73
2022/09/01 07:25:11;;;;;;;0.00;0.00;;;16.80;99.90;;;;;;5049769;28;20452;-71
2022/09/01 07:27:40;;;;;;;0.00;0.00;;;16.90;99.90;;;;;;5054312;28;21159;-71
2022/09/01 07:30:10;;;;;;;0.00;0.00;;;17.00;99.90;;;;;;5048223;28;20564;-73
2022/09/01 07:32:42;;;;;;;0.00;0.00;;;17.10;99.90;;;;;;5061520;28;20444;-74
2022/09/01 07:35:18;;;;;;;0.00;0.00;;;17.20;99.90;;;;;;5061289;28;20880;-73
2022/09/01 07:37:47;;;;;;;0.00;0.00;;;17.30;99.90;;;;;;5060407;28;20439;-73
2022/09/01 07:40:42;;;;;;;0.00;0.00;;;17.40;99.90;;;;;;5059901;28;20437;-72
2022/09/01 07:43:32;;;;;;;0.00;0.00;;;17.50;99.90;;;;;;5059747;28;20932;-72
2022/09/01 07:46:04;;;;;;;0.00;0.00;;;17.60;99.90;;;;;;5059765;28;20439;-73
2022/09/01 07:48:54;;;;;;;0.00;0.00;;;17.70;99.90;;;;;;5059221;28;20471;-71
2022/09/01 07:51:42;;;;;;;0.00;0.00;;;17.80;99.90;;;;;;5059567;28;20442;-72
2022/09/01 07:54:12;;;;;;;0.00;0.00;;;17.80;99.90;;;;;;5059522;28;20543;-72
2022/09/01 07:56:43;;;;;;;0.00;0.00;;;17.90;99.90;;;;;;5059458;28;20482;-73
2022/09/01 07:59:11;;;;;;;0.00;0.00;;;18.00;99.90;;;;;;5060006;28;20854;-73
2022/09/01 08:01:42;;;;;;;0.00;0.00;;;18.00;99.90;;;;;;5061962;28;20548;-73
2022/09/01 08:04:10;;;;;;;0.00;0.00;;;18.10;99.90;;;;;;5059393;28;20504;-73
2022/09/01 08:06:38;;;;;;;0.00;0.00;;;18.20;99.90;;;;;;5068873;28;20965;-73
2022/09/01 08:09:09;;;;;;;0.00;0.00;;;18.30;99.90;;;;;;5060597;28;20464;-73
2022/09/01 08:11:39;;;;;;;0.00;0.00;;;18.40;99.90;;;;;;5060050;28;20448;-72
2022/09/01 08:14:30;;;;;;;0.00;0.00;;;18.50;99.90;;;;;;5060297;28;20734;-72
2022/09/01 08:17:01;;;;;;;0.00;0.00;;;18.60;99.90;;;;;;5050743;28;20917;-73
2022/09/01 08:19:45;;;;;;;0.00;0.00;;;18.60;99.90;;;;;;5038094;28;21071;-72
2022/09/01 08:22:14;;;;;;;0.00;0.00;;;18.70;99.90;;;;;;5038150;28;21084;-72
2022/09/01 08:24:42;;;;;;;0.00;0.00;;;18.70;99.90;;;;;;5038893;28;20438;-72
2022/09/01 08:27:10;;;;;;;0.00;0.00;;;18.70;99.90;;;;;;5038641;28;20954;-72
2022/09/01 08:29:39;;;;;;;0.00;0.00;;;18.80;99.90;;;;;;5038540;28;20539;-72
2022/09/01 08:32:07;;;;;;;0.00;0.00;;;18.80;99.90;;;;;;5038390;28;20826;-72
2022/09/01 08:34:36;;;;;;;0.00;0.00;;;19.00;99.90;;;;;;5055661;28;20469;-72
2022/09/01 08:37:05;;;;;;;0.00;0.00;;;19.00;99.90;;;;;;5058192;28;20497;-72
2022/09/01 08:39:33;;;;;;;0.00;0.00;;;19.10;99.90;;;;;;5051499;28;20881;-72
2022/09/01 08:42:09;;;;;;;0.00;0.00;;;19.20;99.90;;;;;;5058633;28;20476;-72
2022/09/01 08:44:47;;;;;;;0.00;0.00;;;19.30;99.90;;;;;;5058090;28;20729;-72
2022/09/01 08:47:18;;;;;;;0.00;0.00;;;19.30;99.90;;;;;;5057784;28;20527;-73
2022/09/01 08:50:00;;;;;;;0.00;0.00;;;19.40;99.90;;;;;;5050567;28;20487;-72
2022/09/01 08:52:32;;;;;;;0.00;0.00;;;19.40;99.90;;;;;;5037694;28;20531;-72
2022/09/01 08:55:05;;;;;;;0.00;0.00;;;19.50;99.90;;;;;;5037104;28;20450;-71
2022/09/01 08:57:36;;;;;;;0.00;0.00;;;19.50;99.90;;;;;;5050725;28;20473;-72
2022/09/01 09:00:09;;;;;;;0.00;0.00;;;19.50;99.90;;;;;;5057053;28;20692;-72
2022/09/01 09:02:46;;;;;;;0.00;0.00;;;19.60;99.90;;;;;;5048180;28;20794;-72
2022/09/01 09:05:30;;;;;;;0.00;0.00;;;19.80;99.90;;;;;;5045672;28;20474;-71
2022/09/01 09:08:16;;;;;;;0.00;0.00;;;19.80;99.90;;;;;;5053353;28;20546;-73
2022/09/01 09:10:51;;;;;;;0.00;0.00;;;19.90;99.90;;;;;;5050878;28;20452;-73
2022/09/01 09:13:25;;;;;;;0.00;0.00;;;19.90;99.90;;;;;;5042011;28;20450;-73
2022/09/01 09:15:59;;;;;;;0.00;0.00;;;19.90;99.90;;;;;;5042430;28;20444;-73
2022/09/01 09:18:42;;;;;;;0.00;0.00;;;19.90;99.90;;;;;;5045031;28;21179;-74
2022/09/01 09:21:27;;;;;;;0.00;0.00;;;19.90;99.90;;;;;;5048440;28;20483;-71
2022/09/01 09:24:00;;;;;;;0.00;0.00;;;20.00;99.90;;;;;;5056968;28;21066;-70
2022/09/01 09:26:30;;;;;;;0.00;0.00;;;20.00;99.90;;;;;;5041864;28;20423;-72
2022/09/01 09:29:09;;;;;;;0.00;0.00;;;20.00;99.90;;;;;;5046380;28;20485;-72
2022/09/01 09:31:42;;;;;;;0.00;0.00;;;19.90;99.90;;;;;;5054199;28;20600;-72
2022/09/01 09:34:31;;;;;;;0.00;0.00;;;19.80;99.90;;;;;;5050610;28;20463;-72
2022/09/01 09:37:15;;;;;;;0.00;0.00;;;19.70;99.90;;;;;;5048170;28;20476;-72
2022/09/01 09:39:43;;;;;;;0.00;0.00;;;19.80;99.90;;;;;;5062777;28;20463;-72
2022/09/01 09:42:14;;;;;;;0.00;0.00;;;19.90;99.90;;;;;;5070371;28;20447;-72
2022/09/01 09:44:45;;;;;;;0.00;0.00;;;19.90;99.90;;;;;;5064674;28;20534;-72
2022/09/01 09:50:18;;;;;;;0.00;0.00;;;20.10;99.90;;;;;;5129339;27;20935;-71
2022/09/01 09:52:49;;;;;;;0.00;0.00;;;20.30;99.90;;;;;;5111746;28;20494;-70
2022/09/01 09:55:24;;;;;;;0.00;0.00;;;20.40;99.90;;;;;;5098137;28;20534;-71
2022/09/01 09:57:56;;;;;;;0.00;0.00;;;20.50;99.90;;;;;;5113726;28;20455;-71
2022/09/01 10:00:28;;;;;;;0.00;0.00;;;20.50;99.90;;;;;;5097082;28;20470;-69
2022/09/01 10:03:00;;;;;;;0.00;0.00;;;20.60;99.90;;;;;;5078203;28;20437;-70
2022/09/01 10:05:40;;;;;;;0.00;0.00;;;20.70;99.90;;;;;;5097053;27;20437;-70
2022/09/01 10:08:15;;;;;;;0.00;0.00;;;20.80;99.90;;;;;;5118711;28;20496;-70
2022/09/01 10:10:50;;;;;;;0.00;0.00;;;20.90;99.90;;;;;;5110678;28;20501;-71
2022/09/01 10:13:27;;;;;;;0.00;0.00;;;20.90;99.90;;;;;;5117206;27;20464;-70
2022/09/01 10:16:01;;;;;;;0.00;0.00;;;20.90;99.90;;;;;;5076172;28;21058;-72
2022/09/01 10:18:37;;;;;;;0.00;0.00;;;21.00;99.90;;;;;;5101541;28;20478;-71
2022/09/01 10:21:13;;;;;;;0.00;0.00;;;21.10;99.90;;;;;;5095305;28;20835;-70
2022/09/01 10:23:42;;;;;;;0.00;0.00;;;21.20;99.90;;;;;;5105940;28;20472;-70
2022/09/01 10:26:16;;;;;;;0.00;0.00;;;21.20;99.90;;;;;;5100597;28;20990;-71
2022/09/01 10:28:53;;;;;;;0.00;0.00;;;21.20;99.90;;;;;;5116483;27;21076;-70
2022/09/01 10:31:21;;;;;;;0.00;0.00;;;21.20;99.90;;;;;;5102472;28;20506;-70
2022/09/01 10:33:50;;;;;;;0.00;0.00;;;21.20;99.90;;;;;;5095378;28;20975;-73
2022/09/01 10:36:21;;;;;;;0.00;0.00;;;21.20;99.90;;;;;;5094239;28;20512;-71
2022/09/01 10:38:51;;;;;;;0.00;0.00;;;21.20;99.90;;;;;;5093940;28;20446;-71
2022/09/01 10:41:48;;;;;;;0.00;0.00;;;21.20;99.90;;;;;;5083915;28;20546;-71
2022/09/01 10:44:30;;;;;;;0.00;0.00;;;21.30;99.90;;;;;;5073316;28;20479;-70
2022/09/01 10:47:01;;;;;;;0.00;0.00;;;21.50;99.90;;;;;;5074635;28;20452;-71
2022/09/01 10:49:59;;;;;;;0.00;0.00;;;21.70;99.90;;;;;;5074544;28;20477;-70
2022/09/01 10:52:56;;;;;;;0.00;0.00;;;21.80;99.90;;;;;;5074966;28;20709;-75
2022/09/01 10:55:29;;;;;;;0.00;0.00;;;22.00;99.90;;;;;;5083892;28;20831;-75
2022/09/01 10:58:16;;;;;;;0.00;0.00;;;22.10;99.70;;;;;;5074571;28;20508;-74
2022/09/01 11:01:04;;;;;;;0.00;0.00;;;22.10;99.70;;;;;;5063057;28;20441;-69
2022/09/01 11:03:55;;;;;;;0.00;0.00;;;22.20;99.70;;;;;;5061079;28;20464;-70
2022/09/01 11:06:52;;;;;;;0.00;0.00;;;22.20;99.90;;;;;;5070011;28;20448;-71
2022/09/01 11:09:43;;;;;;;0.00;0.00;;;22.20;99.90;;;;;;5073039;28;21117;-71
2022/09/01 11:12:33;;;;;;;0.00;0.00;;;22.10;99.90;;;;;;5070957;28;20446;-70
2022/09/01 11:15:03;;;;;;;0.00;0.00;;;21.90;99.90;;;;;;5054586;28;20452;-72
2022/09/01 11:17:37;;;;;;;0.00;0.00;;;21.80;99.90;;;;;;5066282;28;20463;-71
2022/09/01 11:20:09;;;;;;;0.00;0.00;;;21.70;99.90;;;;;;5070996;28;20489;-70
2022/09/01 11:22:40;;;;;;;0.00;0.00;;;21.70;99.90;;;;;;5061734;28;20440;-72
2022/09/01 11:25:42;;;;;;;0.00;0.00;;;21.60;99.90;;;;;;5072357;28;20503;-72
2022/09/01 11:28:39;;;;;;;0.00;0.00;;;21.70;99.90;;;;;;5081285;28;20525;-72
2022/09/01 11:31:26;;;;;;;0.00;0.00;;;21.70;99.90;;;;;;5081443;28;20504;-72
2022/09/01 11:34:11;;;;;;;0.00;0.00;;;21.80;99.90;;;;;;5074571;28;20459;-73
2022/09/01 11:36:51;;;;;;;0.00;0.00;;;21.90;99.90;;;;;;5061603;28;20528;-71
2022/09/01 11:39:46;;;;;;;0.00;0.00;;;22.00;99.90;;;;;;5063960;28;20473;-73
2022/09/01 11:42:20;;;;;;;0.00;0.00;;;22.20;99.90;;;;;;5064092;28;20468;-71
2022/09/01 11:44:56;;;;;;;0.00;0.00;;;22.40;99.90;;;;;;5060413;28;20488;-72
2022/09/01 11:47:27;;;;;;;0.00;0.00;;;22.60;99.40;;;;;;5058132;28;21046;-72
2022/09/01 11:49:58;;;;;;;0.00;0.00;;;22.70;99.40;;;;;;5080456;28;20566;-71
2022/09/01 11:52:29;;;;;;;0.00;0.00;;;22.60;99.20;;;;;;5085514;28;20451;-71
2022/09/01 11:54:58;;;;;;;0.00;0.00;;;22.40;99.00;;;;;;5083983;28;20464;-71
2022/09/01 11:57:30;;;;;;;0.00;0.00;;;22.20;99.30;;;;;;5081261;28;20443;-71
2022/09/01 12:00:00;;;;;;;0.00;0.00;;;21.90;99.40;;;;;;5080858;28;20463;-71
2022/09/01 12:02:32;;;;;;;0.00;0.00;;;21.70;99.80;;;;;;5080591;28;20431;-72
2022/09/01 12:05:23;;;;;;;0.00;0.00;;;21.70;99.90;;;;;;5062616;28;20443;-73
2022/09/01 12:07:52;;;;;;;0.00;0.00;;;21.80;99.90;;;;;;5080208;28;20441;-73
2022/09/01 12:10:25;;;;;;;0.00;0.00;;;21.90;99.90;;;;;;5080388;28;20513;-72
2022/09/01 12:13:06;;;;;;;0.00;0.00;;;22.10;99.90;;;;;;5088792;28;20470;-72
2022/09/01 12:15:36;;;;;;;0.00;0.00;;;22.20;99.60;;;;;;5086488;28;20434;-75
2022/09/01 12:18:18;;;;;;;0.00;0.00;;;22.40;99.90;;;;;;5075771;28;20531;-72
2022/09/01 12:20:49;;;;;;;0.00;0.00;;;22.40;99.90;;;;;;5094359;28;20515;-72
2022/09/01 12:23:25;;;;;;;0.00;0.00;;;22.30;99.90;;;;;;5102224;28;20473;-70
2022/09/01 12:25:55;;;;;;;0.00;0.00;;;22.30;99.90;;;;;;5101691;28;20438;-73
2022/09/01 12:28:26;;;;;;;0.00;0.00;;;22.20;99.90;;;;;;5094449;28;20486;-71
2022/09/01 12:30:59;;;;;;;0.00;0.00;;;22.10;99.90;;;;;;5065134;28;20484;-73
2022/09/01 12:33:27;;;;;;;0.00;0.00;;;22.10;99.90;;;;;;5060864;28;20451;-73
2022/09/01 12:36:13;;;;;;;0.00;0.00;;;21.90;99.90;;;;;;5074769;28;20463;-70
2022/09/01 12:38:41;;;;;;;0.00;0.00;;;21.80;99.90;;;;;;5064709;28;21011;-71
2022/09/01 12:41:23;;;;;;;0.00;0.00;;;21.60;99.90;;;;;;5066735;28;21083;-73
2022/09/01 12:43:53;;;;;;;0.00;0.00;;;21.50;99.90;;;;;;5071245;28;20447;-70
2022/09/01 12:46:43;;;;;;;0.00;0.00;;;21.40;99.90;;;;;;5059246;28;20438;-74
2022/09/01 12:49:18;;;;;;;0.00;0.00;;;21.30;99.90;;;;;;5062239;28;21191;-73
2022/09/01 12:51:47;;;;;;;0.00;0.00;;;21.30;99.90;;;;;;5063073;28;20471;-72
2022/09/01 12:54:16;;;;;;;0.00;0.00;;;21.30;99.70;;;;;;5067767;28;20444;-73
2022/09/01 12:56:49;;;;;;;0.00;0.00;;;21.40;99.70;;;;;;5060986;28;21024;-72
2022/09/01 12:59:24;;;;;;;0.00;0.00;;;21.60;99.50;;;;;;5060590;28;20455;-71
2022/09/01 13:02:26;;;;;;;0.00;0.00;;;21.70;99.00;;;;;;5061280;28;20463;-71
2022/09/01 13:04:54;;;;;;;0.00;0.00;;;21.90;99.00;;;;;;5079450;28;20495;-72
2022/09/01 13:07:23;;;;;;;0.00;0.00;;;22.10;99.10;;;;;;5073170;28;20461;-71
2022/09/01 13:09:50;;;;;;;0.00;0.00;;;22.20;99.20;;;;;;5058669;28;20480;-72
2022/09/01 13:12:21;;;;;;;0.00;0.00;;;22.30;99.10;;;;;;5059900;28;20531;-71
2022/09/01 13:14:50;;;;;;;0.00;0.00;;;22.40;99.40;;;;;;5071478;28;20439;-71
2022/09/01 13:17:18;;;;;;;0.00;0.00;;;22.50;99.70;;;;;;5076390;28;20448;-71
2022/09/01 13:19:46;;;;;;;0.00;0.00;;;22.40;99.80;;;;;;5091534;28;20468;-71
2022/09/01 13:22:14;;;;;;;0.00;0.00;;;22.50;99.90;;;;;;5074299;28;20456;-71
2022/09/01 13:24:42;;;;;;;0.00;0.00;;;22.50;99.90;;;;;;5065277;28;20435;-73
2022/09/01 13:27:11;;;;;;;0.00;0.00;;;22.50;99.90;;;;;;5071890;28;21127;-71
2022/09/01 13:29:49;;;;;;;0.00;0.00;;;22.60;99.90;;;;;;5071645;28;20470;-71
2022/09/01 13:32:19;;;;;;;0.00;0.00;;;22.60;99.90;;;;;;5078678;28;20469;-72
2022/09/01 13:34:49;;;;;;;0.00;0.00;;;22.70;99.90;;;;;;5062620;28;20442;-72
2022/09/01 13:37:19;;;;;;;0.00;0.00;;;22.70;99.90;;;;;;5070202;28;20472;-72
2022/09/01 13:39:47;;;;;;;0.00;0.00;;;22.70;99.90;;;;;;5071519;28;20468;-71